Disclaimer

Please do not use the information listed here in-flight or in-navigation, as they are not provided to us by the airports but are provided by volunteers, so they might be outdated.

Search


Regions


Airport information page

Radio informations:
Tower (TWR) - 119.7 MHz

Airport informations:
Latitude: 36° 47' 42.49" N
Longitude: 005° 52' 24.99" E
Elevation: 36 feet - 11 meters
Operating hours: Remarks
Operating agency: Civil government, landing fees and diplomatic clearance may be required
Timezone: UTC+1 - Dates notified by NOTAM
Fuel: 100/130 octane gasoline, leaded, MIL-L-5572F (GREEN)

Runway information:
17/35 - 7874 x 148 feet< - >2400 x 45 meters

Recent METARs:
DAAV 160900Z 16004KT CAVOK 16/08 Q1022
DAAV 160900Z 16004KT CAVOK 16/08 Q1022
DAAV 161000Z 16004KT CAVOK 19/11 Q1022

Airport on the map: